createdAt,value
2023-05-23T00:02:27.741Z,7.30
2023-05-23T00:04:58.612Z,5.80
2023-05-23T00:07:33.202Z,7.33
2023-05-23T00:10:00.050Z,6.80
2023-05-23T00:12:30.559Z,4.90
2023-05-23T00:14:59.691Z,7.18
2023-05-23T00:17:29.039Z,6.07
2023-05-23T00:19:56.568Z,6.90
2023-05-23T00:22:24.309Z,6.43
2023-05-23T00:24:51.668Z,9.80
2023-05-23T00:27:21.284Z,7.40
2023-05-23T00:29:48.207Z,6.40
2023-05-23T00:32:18.696Z,7.38
2023-05-23T00:34:46.126Z,7.28
2023-05-23T00:37:13.950Z,8.85
2023-05-23T00:39:44.285Z,8.50
2023-05-23T00:42:11.382Z,10.50
2023-05-23T00:44:38.261Z,7.03
2023-05-23T00:47:07.120Z,7.00
2023-05-23T00:49:36.106Z,8.23
2023-05-23T00:52:04.042Z,8.77
2023-05-23T00:54:44.879Z,7.80
2023-05-23T00:57:15.162Z,9.73
2023-05-23T00:59:45.893Z,7.33
2023-05-23T01:02:13.892Z,6.85
2023-05-23T01:04:45.484Z,7.97
2023-05-23T01:07:13.009Z,6.65
2023-05-23T01:09:45.999Z,6.80
2023-05-23T01:12:25.885Z,10.85
2023-05-23T01:15:10.428Z,9.45
2023-05-23T01:17:53.173Z,10.45
2023-05-23T01:20:28.886Z,9.10
2023-05-23T01:23:01.699Z,8.70
2023-05-23T01:25:39.950Z,19.98
2023-05-23T01:28:11.916Z,13.60
2023-05-23T01:30:42.862Z,6.50
2023-05-23T01:33:12.996Z,8.30
2023-05-23T01:35:42.740Z,13.57
2023-05-23T01:38:11.018Z,8.18
2023-05-23T01:40:40.218Z,7.07
2023-05-23T01:43:12.711Z,7.50
2023-05-23T01:45:42.350Z,7.18
2023-05-23T01:48:12.410Z,13.10
2023-05-23T01:50:42.240Z,13.02
2023-05-23T01:53:10.374Z,10.80
2023-05-23T01:55:41.560Z,9.13
2023-05-23T01:58:08.982Z,7.20
2023-05-23T02:00:37.151Z,7.05
2023-05-23T02:03:06.300Z,7.38
2023-05-23T02:05:34.663Z,6.80
2023-05-23T02:08:03.975Z,7.40
2023-05-23T02:10:31.502Z,7.38
2023-05-23T02:12:59.992Z,13.88
2023-05-23T02:15:27.509Z,6.93
2023-05-23T02:17:55.164Z,10.68
2023-05-23T02:20:22.893Z,8.45
2023-05-23T02:22:50.933Z,9.63
2023-05-23T02:25:27.658Z,9.48
2023-05-23T02:27:57.207Z,7.10
2023-05-23T02:30:25.798Z,8.07
2023-05-23T02:32:54.518Z,10.90
2023-05-23T02:35:23.132Z,7.72
2023-05-23T02:37:50.375Z,8.02
2023-05-23T02:40:18.875Z,7.60
2023-05-23T02:42:50.165Z,6.80
2023-05-23T02:45:17.790Z,7.82
2023-05-23T02:47:46.498Z,7.55
2023-05-23T02:50:19.722Z,8.98
2023-05-23T02:52:47.177Z,9.13
2023-05-23T02:55:14.147Z,10.75
2023-05-23T02:57:44.145Z,6.95
2023-05-23T03:00:12.986Z,9.27
2023-05-23T03:02:42.408Z,7.60
2023-05-23T03:05:11.126Z,16.75
2023-05-23T03:07:38.848Z,8.20
2023-05-23T03:10:09.189Z,7.70
2023-05-23T03:12:37.810Z,9.10
2023-05-23T03:15:07.570Z,7.75
2023-05-23T03:17:36.475Z,9.48
2023-05-23T03:20:07.300Z,8.25
2023-05-23T03:22:37.602Z,7.80
2023-05-23T03:25:06.620Z,11.57
2023-05-23T03:27:34.017Z,8.02
2023-05-23T03:30:08.217Z,8.07
2023-05-23T03:32:37.189Z,9.30
2023-05-23T03:35:04.481Z,7.38
2023-05-23T03:37:36.229Z,8.60
2023-05-23T03:40:05.524Z,6.97
2023-05-23T03:42:37.403Z,7.65
2023-05-23T03:45:05.765Z,8.90
2023-05-23T03:47:36.238Z,7.40
2023-05-23T03:50:06.148Z,8.30
2023-05-23T03:52:36.737Z,7.20
2023-05-23T03:55:06.401Z,8.00
2023-05-23T03:57:38.039Z,11.23
2023-05-23T04:00:06.650Z,7.50
2023-05-23T04:02:34.079Z,8.25
2023-05-23T04:05:01.798Z,10.07
2023-05-23T04:07:32.602Z,8.07
2023-05-23T04:10:00.116Z,8.77
2023-05-23T04:12:31.647Z,11.52
2023-05-23T04:14:58.808Z,19.73
2023-05-23T04:17:33.415Z,9.05
2023-05-23T04:20:02.319Z,8.13
2023-05-23T04:22:32.329Z,7.85
2023-05-23T04:25:04.082Z,8.80
2023-05-23T04:27:40.692Z,9.20
2023-05-23T04:30:11.701Z,7.93
2023-05-23T04:32:40.151Z,7.90
2023-05-23T04:35:14.206Z,9.53
2023-05-23T04:37:43.496Z,7.73
2023-05-23T04:40:14.935Z,16.77
2023-05-23T04:42:44.859Z,8.47
2023-05-23T04:45:13.053Z,9.20
2023-05-23T04:47:40.081Z,10.70
2023-05-23T04:50:11.767Z,8.20
2023-05-23T04:52:39.692Z,10.40
2023-05-23T04:55:11.066Z,13.00
2023-05-23T04:57:44.208Z,8.83
2023-05-23T05:00:14.455Z,14.87
2023-05-23T05:02:41.922Z,7.93
2023-05-23T05:05:11.283Z,10.20
2023-05-23T05:07:42.332Z,10.80
2023-05-23T05:10:17.643Z,7.33
2023-05-23T05:12:52.574Z,15.33
2023-05-23T05:15:20.235Z,8.57
2023-05-23T05:17:49.850Z,10.07
2023-05-23T05:20:22.104Z,11.73
2023-05-23T05:23:00.419Z,15.27
2023-05-23T05:25:29.200Z,8.80
2023-05-23T05:28:01.913Z,7.90
2023-05-23T05:30:37.119Z,8.47
2023-05-23T05:33:09.054Z,12.40
2023-05-23T05:35:39.212Z,8.50
2023-05-23T05:38:08.958Z,8.97
2023-05-23T05:40:37.634Z,9.00
2023-05-23T05:43:14.247Z,10.73
2023-05-23T05:45:44.613Z,9.60
2023-05-23T05:48:13.518Z,11.80
2023-05-23T05:50:45.645Z,17.17
2023-05-23T05:53:20.256Z,7.93
2023-05-23T05:55:51.010Z,11.00
2023-05-23T05:58:21.532Z,10.73
2023-05-23T06:00:49.617Z,9.67
2023-05-23T06:03:38.305Z,9.80
2023-05-23T06:06:18.368Z,9.80
2023-05-23T06:08:48.359Z,11.50
2023-05-23T06:11:17.723Z,12.43
2023-05-23T06:13:45.127Z,10.77
2023-05-23T06:16:34.267Z,14.60
2023-05-23T06:19:04.822Z,9.90
2023-05-23T06:21:41.317Z,10.33
2023-05-23T06:24:08.408Z,11.40
2023-05-23T06:26:37.533Z,9.03
2023-05-23T06:29:04.886Z,8.77
2023-05-23T06:31:35.370Z,17.40
2023-05-23T06:34:33.544Z,14.83
2023-05-23T06:36:54.182Z,19.10
2023-05-23T06:39:33.823Z,10.10
2023-05-23T06:42:11.512Z,11.47
2023-05-23T06:44:56.613Z,11.17
2023-05-23T06:47:35.612Z,13.17
2023-05-23T06:50:19.245Z,13.40
2023-05-23T06:52:58.853Z,20.10
2023-05-23T06:55:52.792Z,13.00
2023-05-23T07:01:14.595Z,15.67
2023-05-23T07:04:14.280Z,9.40
2023-05-23T07:06:48.209Z,11.47
2023-05-23T07:09:32.391Z,11.23
2023-05-23T07:12:10.532Z,9.60
2023-05-23T07:14:39.517Z,10.27
2023-05-23T07:17:15.950Z,10.43
2023-05-23T07:19:57.561Z,16.63
2023-05-23T07:22:25.746Z,10.03
2023-05-23T07:25:00.831Z,11.73
2023-05-23T07:27:35.151Z,14.97
2023-05-23T07:30:13.354Z,9.17
2023-05-23T07:32:46.571Z,16.00
2023-05-23T07:35:39.286Z,9.37
2023-05-23T07:38:07.074Z,10.20
2023-05-23T07:43:17.237Z,8.73
2023-05-23T07:45:45.705Z,11.13
2023-05-23T07:48:14.491Z,20.53
2023-05-23T07:50:49.792Z,14.97
2023-05-23T07:53:29.312Z,9.53
2023-05-23T07:55:57.639Z,9.00
2023-05-23T07:58:34.511Z,10.87
2023-05-23T08:01:22.565Z,9.67
2023-05-23T08:04:10.432Z,12.23
2023-05-23T08:06:48.742Z,8.60
2023-05-23T08:09:30.775Z,8.27
2023-05-23T08:12:09.884Z,9.00
2023-05-23T08:14:50.734Z,10.90
2023-05-23T08:17:21.783Z,8.17
2023-05-23T08:19:49.315Z,9.73
2023-05-23T08:22:18.800Z,8.40
2023-05-23T08:24:46.908Z,7.93
2023-05-23T08:27:14.297Z,13.10
2023-05-23T08:29:46.352Z,12.20
2023-05-23T08:32:14.311Z,11.47
2023-05-23T08:34:47.076Z,11.93
2023-05-23T08:37:15.605Z,8.07
2023-05-23T08:39:42.958Z,9.00
2023-05-23T08:42:10.644Z,11.90
2023-05-23T08:44:43.727Z,9.90
2023-05-23T08:47:23.676Z,9.47
2023-05-23T08:49:54.937Z,10.20
2023-05-23T08:52:29.130Z,12.03
2023-05-23T08:54:58.713Z,9.40
2023-05-23T08:57:31.730Z,11.20
2023-05-23T09:00:07.972Z,11.57
2023-05-23T09:02:41.373Z,13.90
2023-05-23T09:05:10.016Z,13.40
2023-05-23T09:07:42.380Z,10.87
2023-05-23T09:10:19.871Z,10.50
2023-05-23T09:12:48.748Z,10.60
2023-05-23T09:15:25.401Z,14.13
2023-05-23T09:17:55.155Z,11.73
2023-05-23T09:20:34.131Z,13.83
2023-05-23T09:25:50.661Z,16.17
2023-05-23T09:28:23.602Z,10.93
2023-05-23T09:31:07.975Z,14.40
2023-05-23T09:33:52.310Z,14.80
2023-05-23T09:36:25.517Z,16.67
2023-05-23T09:38:54.612Z,12.17
2023-05-23T09:41:23.963Z,15.43
2023-05-23T09:44:01.981Z,13.80
2023-05-23T09:46:31.752Z,12.97
2023-05-23T09:49:25.661Z,14.47
2023-05-23T09:52:04.144Z,20.57
2023-05-23T09:54:33.575Z,13.80
2023-05-23T09:57:03.360Z,16.53
2023-05-23T10:00:02.574Z,16.77
2023-05-23T10:03:24.527Z,15.03
2023-05-23T10:06:04.843Z,19.50
2023-05-23T10:08:49.537Z,18.60
2023-05-23T10:11:38.487Z,21.70
2023-05-23T10:14:10.431Z,18.17
2023-05-23T10:16:52.698Z,17.70
2023-05-23T10:19:58.868Z,16.27
2023-05-23T10:22:34.662Z,13.93
2023-05-23T10:25:03.481Z,15.00
2023-05-23T10:28:07.644Z,15.77
2023-05-23T10:30:34.989Z,13.03
2023-05-23T10:36:21.740Z,14.80
2023-05-23T10:39:18.701Z,14.47
2023-05-23T10:41:52.859Z,20.57
2023-05-23T10:44:55.355Z,14.40
2023-05-23T10:47:30.520Z,21.23
2023-05-23T10:50:02.368Z,15.73
2023-05-23T10:52:42.481Z,14.57
2023-05-23T10:55:21.219Z,17.93
2023-05-23T10:58:33.336Z,15.13
2023-05-23T11:03:55.549Z,14.77
2023-05-23T11:06:45.735Z,14.73
2023-05-23T11:09:19.938Z,13.80
2023-05-23T11:11:55.915Z,15.63
2023-05-23T11:14:33.078Z,12.63
2023-05-23T11:17:24.306Z,13.70
2023-05-23T11:20:05.092Z,13.43
2023-05-23T11:22:36.621Z,11.37
2023-05-23T11:25:13.250Z,10.40
2023-05-23T11:27:48.158Z,13.20
2023-05-23T11:30:20.872Z,11.83
2023-05-23T11:32:55.663Z,9.37
2023-05-23T11:35:26.693Z,12.73
2023-05-23T11:38:00.452Z,10.23
2023-05-23T11:40:50.032Z,10.00
2023-05-23T11:43:19.803Z,10.00
2023-05-23T11:45:48.582Z,8.43
2023-05-23T11:48:21.115Z,9.73
2023-05-23T11:50:50.550Z,9.00
2023-05-23T11:53:22.819Z,13.83
2023-05-23T11:55:57.905Z,9.83
2023-05-23T11:58:31.212Z,8.47
2023-05-23T12:01:11.215Z,9.03
2023-05-23T12:03:50.597Z,9.63
2023-05-23T12:06:22.248Z,8.77
2023-05-23T12:08:56.827Z,9.10
2023-05-23T12:11:26.173Z,10.13
2023-05-23T12:13:55.087Z,10.27
2023-05-23T12:16:24.197Z,7.07
2023-05-23T12:18:53.724Z,8.07
2023-05-23T12:21:27.248Z,8.30
2023-05-23T12:23:54.960Z,7.30
2023-05-23T12:26:22.249Z,10.00
2023-05-23T12:28:53.672Z,11.20
2023-05-23T12:31:23.106Z,13.43
2023-05-23T12:33:53.197Z,10.67
2023-05-23T12:36:29.837Z,7.87
2023-05-23T12:39:08.287Z,8.70
2023-05-23T12:41:36.921Z,7.90
2023-05-23T12:44:07.327Z,11.07
2023-05-23T12:46:39.084Z,13.10
2023-05-23T12:49:11.959Z,7.20
2023-05-23T12:51:39.661Z,7.37
2023-05-23T12:54:08.916Z,7.20
2023-05-23T12:56:40.611Z,7.60
2023-05-23T12:59:09.317Z,7.67
2023-05-23T13:01:39.042Z,8.93
2023-05-23T13:04:11.226Z,8.43
2023-05-23T13:06:42.166Z,10.20
2023-05-23T13:09:13.413Z,10.63
2023-05-23T13:14:18.617Z,9.23
2023-05-23T13:16:53.226Z,7.87
2023-05-23T13:19:26.915Z,8.90
2023-05-23T13:21:55.714Z,10.40
2023-05-23T13:24:25.579Z,8.80
2023-05-23T13:26:54.113Z,9.43
2023-05-23T13:29:22.702Z,10.10
2023-05-23T13:31:49.959Z,10.00
2023-05-23T13:34:19.695Z,9.60
2023-05-23T13:36:47.694Z,8.00
2023-05-23T13:42:02.020Z,11.03
2023-05-23T13:45:00.248Z,8.43
2023-05-23T13:47:27.303Z,9.77
2023-05-23T13:49:54.713Z,8.80
2023-05-23T13:52:24.476Z,11.30
2023-05-23T13:54:57.610Z,9.37
2023-05-23T13:57:26.654Z,12.43
2023-05-23T13:59:54.099Z,9.20
2023-05-23T14:02:33.610Z,16.23
2023-05-23T14:05:01.315Z,15.30
2023-05-23T14:07:36.179Z,12.20
2023-05-23T14:12:50.786Z,11.83
2023-05-23T14:15:21.648Z,13.27
2023-05-23T14:17:51.830Z,9.87
2023-05-23T14:20:21.265Z,10.30
2023-05-23T14:28:26.698Z,7.63
2023-05-23T14:30:59.594Z,8.63
2023-05-23T14:33:26.530Z,10.13
2023-05-23T14:35:54.911Z,8.67
2023-05-23T14:38:24.716Z,8.93
2023-05-23T14:40:52.403Z,9.27
2023-05-23T14:43:22.666Z,9.07
2023-05-23T14:45:53.691Z,12.13
2023-05-23T14:48:21.059Z,8.60
2023-05-23T14:50:48.023Z,11.07
2023-05-23T14:53:15.424Z,15.70
2023-05-23T14:55:43.902Z,12.63
2023-05-23T14:58:18.886Z,9.03
2023-05-23T15:00:49.714Z,9.10
2023-05-23T15:03:20.648Z,9.47
2023-05-23T15:05:49.639Z,11.47
2023-05-23T15:08:22.245Z,8.00
2023-05-23T15:10:51.680Z,9.60
2023-05-23T15:13:18.480Z,10.17
2023-05-23T15:15:48.038Z,9.30
2023-05-23T15:18:27.894Z,7.90
2023-05-23T15:21:02.927Z,8.03
2023-05-23T15:23:31.928Z,8.10
2023-05-23T15:26:00.464Z,9.60
2023-05-23T15:28:30.257Z,7.80
2023-05-23T15:30:57.442Z,6.87
2023-05-23T15:33:27.336Z,7.13
2023-05-23T15:35:54.944Z,8.07
2023-05-23T15:38:23.166Z,8.80
2023-05-23T15:40:54.732Z,8.13
2023-05-23T15:43:23.175Z,8.53
2023-05-23T15:45:51.187Z,6.97
2023-05-23T15:48:19.230Z,7.53
2023-05-23T15:50:49.983Z,8.70
2023-05-23T15:53:16.828Z,7.30
2023-05-23T15:55:45.023Z,9.57
2023-05-23T15:58:13.590Z,7.83
2023-05-23T16:00:45.209Z,8.60
2023-05-23T16:03:14.227Z,7.47
2023-05-23T16:05:41.485Z,7.00
2023-05-23T16:08:13.462Z,8.87
2023-05-23T16:10:43.353Z,7.73
2023-05-23T16:13:10.546Z,9.33
2023-05-23T16:15:40.532Z,8.37
2023-05-23T16:18:07.539Z,10.90
2023-05-23T16:20:37.234Z,10.60
2023-05-23T16:23:04.481Z,9.53
2023-05-23T16:25:32.816Z,7.30
2023-05-23T16:28:11.064Z,7.27
2023-05-23T16:30:37.867Z,7.53
2023-05-23T16:33:09.400Z,8.27
2023-05-23T16:35:41.249Z,9.30
2023-05-23T16:38:12.825Z,7.67
2023-05-23T16:40:39.983Z,9.27
2023-05-23T16:43:07.263Z,9.10
2023-05-23T16:45:34.147Z,9.30
2023-05-23T16:48:01.922Z,9.03
2023-05-23T16:50:30.083Z,10.33
2023-05-23T16:53:05.239Z,8.77
2023-05-23T16:55:33.504Z,9.57
2023-05-23T16:58:03.694Z,8.73
2023-05-23T17:00:31.432Z,10.13
2023-05-23T17:02:58.936Z,9.50
2023-05-23T17:05:27.644Z,13.17
2023-05-23T17:07:59.577Z,11.23
2023-05-23T17:10:27.810Z,8.87
2023-05-23T17:12:54.800Z,9.43
2023-05-23T17:15:22.217Z,8.70
2023-05-23T17:17:50.562Z,9.90
2023-05-23T17:20:17.865Z,9.77
2023-05-23T17:22:45.028Z,9.83
2023-05-23T17:25:12.661Z,12.17
2023-05-23T17:27:39.449Z,9.77
2023-05-23T17:30:10.791Z,8.63
2023-05-23T17:32:38.570Z,9.43
2023-05-23T17:35:05.854Z,7.93
2023-05-23T17:37:34.230Z,9.83
2023-05-23T17:40:02.039Z,8.97
2023-05-23T17:42:29.532Z,10.43
2023-05-23T17:44:56.500Z,10.03
2023-05-23T17:47:28.133Z,11.37
2023-05-23T17:49:55.634Z,11.33
2023-05-23T17:52:25.376Z,11.20
2023-05-23T17:54:53.432Z,13.57
2023-05-23T17:57:24.799Z,11.23
2023-05-23T17:59:53.756Z,10.90
2023-05-23T18:02:21.428Z,9.93
2023-05-23T18:04:52.089Z,15.47
2023-05-23T18:07:23.045Z,10.13
2023-05-23T18:09:50.691Z,11.57
2023-05-23T18:12:18.268Z,10.17
2023-05-23T18:14:50.807Z,10.93
2023-05-23T18:17:20.681Z,11.40
2023-05-23T18:19:53.978Z,10.60
2023-05-23T18:22:23.370Z,12.17
2023-05-23T18:24:53.264Z,10.90
2023-05-23T18:27:26.846Z,11.27
2023-05-23T18:30:07.221Z,10.03
2023-05-23T18:32:34.194Z,11.47
2023-05-23T18:35:02.756Z,12.13
2023-05-23T18:37:29.850Z,13.23
2023-05-23T18:39:58.811Z,12.07
2023-05-23T18:42:29.820Z,11.97
2023-05-23T18:44:59.048Z,10.77
2023-05-23T18:47:27.610Z,10.47
2023-05-23T18:50:04.150Z,14.30
2023-05-23T18:52:38.938Z,11.50
2023-05-23T18:55:20.106Z,10.97
2023-05-23T18:57:59.609Z,11.70
2023-05-23T19:00:29.621Z,10.40
2023-05-23T19:02:58.699Z,10.23
2023-05-23T19:05:29.867Z,10.27
2023-05-23T19:07:56.966Z,11.60
2023-05-23T19:10:34.354Z,12.77
2023-05-23T19:13:05.855Z,10.10
2023-05-23T19:16:06.395Z,9.97
2023-05-23T19:18:51.360Z,11.10
2023-05-23T19:21:18.382Z,10.70
2023-05-23T19:23:45.459Z,10.30
2023-05-23T19:26:14.253Z,10.13
2023-05-23T19:28:41.217Z,9.57
2023-05-23T19:31:17.239Z,10.27
2023-05-23T19:33:48.779Z,9.23
2023-05-23T19:36:19.714Z,11.23
2023-05-23T19:38:46.578Z,10.77
2023-05-23T19:41:13.564Z,10.63
2023-05-23T19:43:42.446Z,10.93
2023-05-23T19:46:09.748Z,10.33
2023-05-23T19:48:36.705Z,9.30
2023-05-23T19:51:06.238Z,13.83
2023-05-23T19:53:33.028Z,10.23
2023-05-23T19:56:07.281Z,9.63
2023-05-23T19:58:36.969Z,9.77
2023-05-23T20:01:03.841Z,10.17
2023-05-23T20:03:41.747Z,12.47
2023-05-23T20:06:11.064Z,11.43
2023-05-23T20:08:37.908Z,12.03
2023-05-23T20:11:05.211Z,10.93
2023-05-23T20:13:32.158Z,12.53
2023-05-23T20:15:59.676Z,11.70
2023-05-23T20:18:26.703Z,10.93
2023-05-23T20:20:53.879Z,11.93
2023-05-23T20:23:21.278Z,13.93
2023-05-23T20:25:48.110Z,11.77
2023-05-23T20:28:15.397Z,13.73
2023-05-23T20:30:42.878Z,13.47
2023-05-23T20:33:09.928Z,13.77
2023-05-23T20:35:36.818Z,13.13
2023-05-23T20:38:04.085Z,26.20
2023-05-23T20:40:34.028Z,13.83
2023-05-23T20:43:04.640Z,13.70
2023-05-23T20:45:34.792Z,18.57
2023-05-23T20:48:01.997Z,16.43
2023-05-23T20:50:29.376Z,15.63
2023-05-23T20:52:56.514Z,19.20
2023-05-23T20:55:23.384Z,16.27
2023-05-23T20:57:50.167Z,16.40
2023-05-23T21:00:17.348Z,17.90
2023-05-23T21:02:44.702Z,16.77
2023-05-23T21:05:12.534Z,18.90
2023-05-23T21:07:39.648Z,19.30
2023-05-23T21:10:06.836Z,18.43
2023-05-23T21:12:33.954Z,17.60
2023-05-23T21:15:02.788Z,21.10
2023-05-23T21:17:29.967Z,18.00
2023-05-23T21:19:57.627Z,19.23
2023-05-23T21:22:28.492Z,20.90
2023-05-23T21:24:59.221Z,23.50
2023-05-23T21:27:29.328Z,19.70
2023-05-23T21:30:05.017Z,19.90
2023-05-23T21:32:48.517Z,21.63
2023-05-23T21:35:15.905Z,17.87
2023-05-23T21:37:42.661Z,22.80
2023-05-23T21:40:11.757Z,22.43
2023-05-23T21:42:38.549Z,23.30
2023-05-23T21:45:08.013Z,26.53
2023-05-23T21:47:34.781Z,25.37
2023-05-23T21:50:02.252Z,23.03
2023-05-23T21:52:28.990Z,21.40
2023-05-23T21:54:56.133Z,36.87
2023-05-23T21:57:25.441Z,23.23
2023-05-23T21:59:52.265Z,21.70
2023-05-23T22:02:19.503Z,24.80
2023-05-23T22:04:46.896Z,26.20
2023-05-23T22:07:13.776Z,21.43
2023-05-23T22:09:40.667Z,28.00
2023-05-23T22:12:07.899Z,24.97
2023-05-23T22:14:35.553Z,21.37
2023-05-23T22:17:04.674Z,32.50
2023-05-23T22:19:33.036Z,22.50
2023-05-23T22:22:03.239Z,24.67
2023-05-23T22:24:31.659Z,21.60
2023-05-23T22:27:01.082Z,24.93
2023-05-23T22:29:30.090Z,21.50
2023-05-23T22:31:59.483Z,20.50
2023-05-23T22:34:31.616Z,21.33
2023-05-23T22:37:00.529Z,22.77
2023-05-23T22:39:27.724Z,20.13
2023-05-23T22:42:00.077Z,16.80
2023-05-23T22:44:29.090Z,19.80
2023-05-23T22:47:00.005Z,16.50
2023-05-23T22:49:30.449Z,14.83
2023-05-23T22:52:01.047Z,14.30
2023-05-23T22:54:27.951Z,13.20
2023-05-23T22:56:58.498Z,12.83
2023-05-23T22:59:25.515Z,16.90
2023-05-23T23:01:52.674Z,14.80
2023-05-23T23:04:27.285Z,13.07
2023-05-23T23:06:58.800Z,13.27
2023-05-23T23:09:30.191Z,12.53
2023-05-23T23:11:59.706Z,12.73
2023-05-23T23:14:28.871Z,14.07
2023-05-23T23:16:57.360Z,13.40
2023-05-23T23:19:24.216Z,14.87
2023-05-23T23:21:52.093Z,14.73
2023-05-23T23:24:20.260Z,15.10
2023-05-23T23:26:48.360Z,14.43
2023-05-23T23:29:15.513Z,13.43
2023-05-23T23:31:48.092Z,16.20
2023-05-23T23:34:20.618Z,14.47
2023-05-23T23:36:49.141Z,15.43
2023-05-23T23:39:17.430Z,13.80
2023-05-23T23:41:47.050Z,13.13
2023-05-23T23:44:15.831Z,13.00
2023-05-23T23:46:43.063Z,13.90
2023-05-23T23:49:09.980Z,13.37
2023-05-23T23:51:37.493Z,13.67
2023-05-23T23:54:18.753Z,14.43
2023-05-23T23:57:21.212Z,13.20
2023-05-23T23:59:49.508Z,16.43
